createdAt,value
2022-12-11T00:02:06.188Z,100643.13
2022-12-11T00:06:13.756Z,100639.88
2022-12-11T00:10:15.318Z,100626.56
2022-12-11T00:14:16.833Z,100623.59
2022-12-11T00:18:18.304Z,100625.06
2022-12-11T00:22:19.962Z,100622.56
2022-12-11T00:26:21.765Z,100622.56
2022-12-11T00:30:23.222Z,100627.47
2022-12-11T00:34:24.755Z,100612.00
2022-12-11T00:38:26.280Z,100617.41
2022-12-11T00:42:27.831Z,100612.00
2022-12-11T00:46:29.307Z,100607.91
2022-12-11T00:50:30.790Z,100622.88
2022-12-11T00:54:33.579Z,100614.94
2022-12-11T00:58:35.047Z,100613.38
2022-12-11T01:02:36.524Z,100618.47
2022-12-11T01:06:39.300Z,100621.47
2022-12-11T01:10:40.787Z,100616.88
2022-12-11T01:14:42.224Z,100618.22
2022-12-11T01:18:44.316Z,100625.28
2022-12-11T01:22:45.863Z,100624.22
2022-12-11T01:26:47.311Z,100622.81
2022-12-11T01:30:48.797Z,100620.91
2022-12-11T01:34:50.372Z,100630.69
2022-12-11T01:38:53.545Z,100623.41
2022-12-11T01:42:55.197Z,100617.97
2022-12-11T01:46:56.616Z,100621.44
2022-12-11T01:51:04.967Z,100625.84
2022-12-11T01:55:07.509Z,100621.19
2022-12-11T01:59:09.973Z,100623.59
2022-12-11T02:03:11.432Z,100633.91
2022-12-11T02:07:12.941Z,100632.03
2022-12-11T02:11:23.122Z,100623.09
2022-12-11T02:15:27.289Z,100632.84
2022-12-11T02:19:55.666Z,100631.50
2022-12-11T02:24:34.447Z,100625.78
2022-12-11T02:28:46.186Z,100626.09
2022-12-11T02:32:56.911Z,100628.81
2022-12-11T02:37:03.850Z,100622.00
2022-12-11T02:41:07.365Z,100624.41
2022-12-11T02:45:11.408Z,100615.78
2022-12-11T02:49:14.895Z,100622.03
2022-12-11T02:53:20.122Z,100616.06
2022-12-11T02:57:25.303Z,100619.84
2022-12-11T03:01:28.002Z,100615.53
2022-12-11T03:05:30.157Z,100616.56
2022-12-11T03:09:31.918Z,100616.91
2022-12-11T03:13:33.376Z,100626.09
2022-12-11T03:17:43.575Z,100617.72
2022-12-11T03:21:48.775Z,100622.03
2022-12-11T03:26:01.153Z,100622.59
2022-12-11T03:30:08.616Z,100621.78
2022-12-11T03:34:18.275Z,100623.09
2022-12-11T03:38:24.613Z,100621.44
2022-12-11T03:42:26.852Z,100624.22
2022-12-11T03:46:33.519Z,100620.44
2022-12-11T03:50:36.478Z,100620.16
2022-12-11T03:54:40.665Z,100614.69
2022-12-11T03:58:42.146Z,100608.19
2022-12-11T04:02:44.944Z,100616.09
2022-12-11T04:06:46.673Z,100615.78
2022-12-11T04:10:49.122Z,100617.72
2022-12-11T04:15:02.369Z,100612.81
2022-12-11T04:19:22.938Z,100609.56
2022-12-11T04:23:43.149Z,100623.16
2022-12-11T04:27:50.142Z,100621.53
2022-12-11T04:31:51.748Z,100610.41
2022-12-11T04:35:53.268Z,100603.88
2022-12-11T04:39:54.757Z,100597.34
2022-12-11T04:43:56.221Z,100599.84
2022-12-11T04:47:57.649Z,100598.72
2022-12-11T04:51:59.079Z,100597.13
2022-12-11T04:56:00.592Z,100593.81
2022-12-11T05:00:04.732Z,100600.31
2022-12-11T05:04:06.166Z,100606.31
2022-12-11T05:08:08.235Z,100588.13
2022-12-11T05:12:09.704Z,100598.50
2022-12-11T05:16:15.039Z,100588.69
2022-12-11T05:20:16.798Z,100587.31
2022-12-11T05:24:18.274Z,100578.34
2022-12-11T05:28:19.814Z,100582.94
2022-12-11T05:32:21.274Z,100582.41
2022-12-11T05:36:27.830Z,100584.56
2022-12-11T05:40:29.309Z,100583.78
2022-12-11T05:44:31.887Z,100575.88
2022-12-11T05:48:33.620Z,100582.72
2022-12-11T05:52:35.088Z,100578.63
2022-12-11T05:56:37.318Z,100585.09
2022-12-11T06:00:41.707Z,100569.13
2022-12-11T06:04:43.143Z,100573.44
2022-12-11T06:08:44.718Z,100576.50
2022-12-11T06:12:46.132Z,100573.47
2022-12-11T06:16:47.600Z,100570.75
2022-12-11T06:20:49.056Z,100579.69
2022-12-11T06:24:50.452Z,100577.44
2022-12-11T06:28:52.322Z,100571.72
2022-12-11T06:32:53.841Z,100566.84
2022-12-11T06:36:55.320Z,100565.47
2022-12-11T06:40:58.434Z,100566.19
2022-12-11T06:45:00.210Z,100565.38
2022-12-11T06:49:01.647Z,100574.91
2022-12-11T06:53:03.122Z,100574.13
2022-12-11T06:57:05.159Z,100579.00
2022-12-11T07:01:16.204Z,100581.19
2022-12-11T07:05:17.763Z,100591.53
2022-12-11T07:09:19.603Z,100582.28
2022-12-11T07:13:21.026Z,100578.00
2022-12-11T07:17:22.422Z,100575.81
2022-12-11T07:21:23.929Z,100582.34
2022-12-11T07:25:25.328Z,100587.47
2022-12-11T07:29:26.753Z,100583.66
2022-12-11T07:33:28.208Z,100585.56
2022-12-11T07:37:29.628Z,100589.38
2022-12-11T07:41:31.818Z,100583.44
2022-12-11T07:45:33.287Z,100596.78
2022-12-11T07:49:34.784Z,100586.97
2022-12-11T07:53:36.289Z,100590.81
2022-12-11T07:57:37.692Z,100596.22
2022-12-11T08:01:39.857Z,100590.03
2022-12-11T08:05:49.362Z,100593.00
2022-12-11T08:09:50.850Z,100598.41
2022-12-11T08:13:52.786Z,100597.56
2022-12-11T08:17:54.201Z,100602.16
2022-12-11T08:21:55.611Z,100592.19
2022-12-11T08:25:57.011Z,100602.47
2022-12-11T08:29:58.417Z,100598.16
2022-12-11T08:34:00.202Z,100601.72
2022-12-11T08:38:01.581Z,100608.75
2022-12-11T08:42:03.008Z,100602.72
2022-12-11T08:46:04.595Z,100606.28
2022-12-11T08:50:06.454Z,100600.31
2022-12-11T08:54:09.349Z,100599.25
2022-12-11T08:58:10.825Z,100605.19
2022-12-11T09:02:15.297Z,100592.66
2022-12-11T09:06:18.961Z,100596.72
2022-12-11T09:10:20.884Z,100597.50
2022-12-11T09:14:22.585Z,100604.09
2022-12-11T09:18:24.141Z,100610.03
2022-12-11T09:22:25.658Z,100611.13
2022-12-11T09:26:29.194Z,100617.59
2022-12-11T09:30:30.688Z,100606.47
2022-12-11T09:34:32.396Z,100606.06
2022-12-11T09:38:34.759Z,100602.66
2022-12-11T09:43:00.410Z,100586.91
2022-12-11T09:47:02.098Z,100576.31
2022-12-11T09:51:14.387Z,100586.13
2022-12-11T09:55:20.490Z,100580.69
2022-12-11T09:59:21.856Z,100581.25
2022-12-11T10:03:38.202Z,100584.47
2022-12-11T10:07:52.695Z,100572.03
2022-12-11T10:12:37.864Z,100571.22
2022-12-11T10:16:43.768Z,100560.00
2022-12-11T10:20:45.483Z,100558.31
2022-12-11T10:25:11.051Z,100549.06
2022-12-11T10:29:16.034Z,100548.44
2022-12-11T10:33:22.448Z,100549.56
2022-12-11T10:37:24.238Z,100549.81
2022-12-11T10:41:39.161Z,100547.63
2022-12-11T10:45:50.505Z,100543.59
2022-12-11T10:49:58.552Z,100539.25
2022-12-11T10:54:32.415Z,100543.13
2022-12-11T10:58:39.846Z,100546.88
2022-12-11T11:02:44.956Z,100534.84
2022-12-11T11:06:49.828Z,100535.16
2022-12-11T11:10:58.679Z,100522.53
2022-12-11T11:15:12.636Z,100529.72
2022-12-11T11:19:32.239Z,100527.13
2022-12-11T11:23:36.718Z,100524.69
2022-12-11T11:27:45.727Z,100520.34
2022-12-11T11:31:47.242Z,100511.88
2022-12-11T11:35:53.001Z,100499.66
2022-12-11T11:40:01.818Z,100494.22
2022-12-11T11:44:07.065Z,100491.47
2022-12-11T11:48:34.163Z,100487.44
2022-12-11T11:52:51.304Z,100483.50
2022-12-11T11:56:56.140Z,100486.56
2022-12-11T12:00:57.568Z,100486.63
2022-12-11T12:04:59.021Z,100483.34
2022-12-11T12:09:22.389Z,100477.47
2022-12-11T12:13:52.326Z,100477.72
2022-12-11T12:18:06.365Z,100481.97
2022-12-11T12:22:43.189Z,100479.44
2022-12-11T12:26:55.838Z,100475.53
2022-12-11T12:31:09.224Z,100483.84
2022-12-11T12:35:31.840Z,100485.25
2022-12-11T12:39:50.348Z,100488.81
2022-12-11T12:44:06.676Z,100486.53
2022-12-11T12:48:09.698Z,100484.91
2022-12-11T12:52:29.424Z,100474.97
2022-12-11T12:56:33.202Z,100469.22
2022-12-11T13:00:37.879Z,100461.44
2022-12-11T13:05:01.732Z,100462.19
2022-12-11T13:09:14.995Z,100466.56
2022-12-11T13:13:32.584Z,100466.22
2022-12-11T13:17:38.900Z,100459.94
2022-12-11T13:21:40.368Z,100454.13
2022-12-11T13:25:48.711Z,100456.22
2022-12-11T13:29:50.406Z,100450.13
2022-12-11T13:33:54.864Z,100457.53
2022-12-11T13:38:04.279Z,100460.00
2022-12-11T13:42:18.434Z,100453.09
2022-12-11T13:46:25.602Z,100453.56
2022-12-11T13:50:34.168Z,100448.22
2022-12-11T13:54:36.463Z,100447.53
2022-12-11T13:58:39.135Z,100444.59
2022-12-11T14:02:42.510Z,100440.31
2022-12-11T14:06:45.200Z,100446.56
2022-12-11T14:10:52.565Z,100441.06
2022-12-11T14:14:56.965Z,100446.69
2022-12-11T14:19:06.111Z,100451.50
2022-12-11T14:23:19.454Z,100455.34
2022-12-11T14:27:25.143Z,100454.16
2022-12-11T14:31:38.994Z,100448.75
2022-12-11T14:35:53.599Z,100457.75
2022-12-11T14:40:10.922Z,100450.59
2022-12-11T14:44:15.865Z,100448.03
2022-12-11T14:48:22.557Z,100445.75
2022-12-11T14:52:31.212Z,100436.44
2022-12-11T14:56:33.295Z,100433.56
2022-12-11T15:00:37.476Z,100445.94
2022-12-11T15:04:40.320Z,100442.50
2022-12-11T15:08:48.908Z,100430.03
2022-12-11T15:12:54.854Z,100433.03
2022-12-11T15:16:57.561Z,100444.38
2022-12-11T15:21:03.098Z,100444.00
2022-12-11T15:25:05.868Z,100452.31
2022-12-11T15:29:26.806Z,100452.91
2022-12-11T15:33:34.091Z,100449.97
2022-12-11T15:37:43.489Z,100445.03
2022-12-11T15:41:44.946Z,100446.25
2022-12-11T15:45:49.183Z,100451.44
2022-12-11T15:50:14.045Z,100446.81
2022-12-11T15:54:15.602Z,100439.31
2022-12-11T15:58:24.313Z,100451.94
2022-12-11T16:06:46.258Z,100451.44
2022-12-11T16:10:48.490Z,100454.31
2022-12-11T16:14:49.976Z,100445.31
2022-12-11T16:18:51.684Z,100446.94
2022-12-11T16:22:55.474Z,100458.00
2022-12-11T16:27:08.626Z,100457.78
2022-12-11T16:31:19.621Z,100457.53
2022-12-11T16:35:23.601Z,100459.06
2022-12-11T16:39:25.483Z,100460.78
2022-12-11T16:43:26.921Z,100455.22
2022-12-11T16:47:29.948Z,100444.66
2022-12-11T16:51:37.638Z,100443.47
2022-12-11T16:55:45.449Z,100451.56
2022-12-11T16:59:50.023Z,100444.75
2022-12-11T17:03:51.553Z,100438.47
2022-12-11T17:07:53.087Z,100451.50
2022-12-11T17:11:54.570Z,100444.53
2022-12-11T17:15:56.047Z,100455.25
2022-12-11T17:19:57.587Z,100451.25
2022-12-11T17:23:59.310Z,100455.03
2022-12-11T17:28:00.732Z,100451.25
2022-12-11T17:32:03.257Z,100439.50
2022-12-11T17:36:07.545Z,100436.09
2022-12-11T17:40:09.475Z,100439.31
2022-12-11T17:44:19.858Z,100436.91
2022-12-11T17:48:24.777Z,100440.31
2022-12-11T17:52:34.486Z,100436.53
2022-12-11T17:57:00.201Z,100440.28
2022-12-11T18:01:08.351Z,100441.91
2022-12-11T18:05:11.596Z,100439.00
2022-12-11T18:09:13.247Z,100437.06
2022-12-11T18:13:17.957Z,100437.66
2022-12-11T18:17:19.423Z,100434.25
2022-12-11T18:21:28.088Z,100443.16
2022-12-11T18:25:31.217Z,100443.31
2022-12-11T18:29:36.003Z,100443.16
2022-12-11T18:33:39.525Z,100446.13
2022-12-11T18:37:41.227Z,100447.50
2022-12-11T18:41:43.062Z,100450.59
2022-12-11T18:45:46.473Z,100448.63
2022-12-11T18:49:48.084Z,100444.13
2022-12-11T18:53:50.235Z,100441.91
2022-12-11T18:57:51.748Z,100442.09
2022-12-11T19:01:53.297Z,100432.28
2022-12-11T19:05:54.774Z,100443.63
2022-12-11T19:09:56.271Z,100430.63
2022-12-11T19:13:57.835Z,100430.13
2022-12-11T19:17:59.304Z,100435.63
2022-12-11T19:22:00.749Z,100435.34
2022-12-11T19:26:02.462Z,100437.22
2022-12-11T19:30:04.613Z,100440.44
2022-12-11T19:34:06.097Z,100436.91
2022-12-11T19:38:08.401Z,100443.91
2022-12-11T19:42:09.929Z,100447.09
2022-12-11T19:46:12.788Z,100450.03
2022-12-11T19:50:14.359Z,100450.72
2022-12-11T19:54:17.614Z,100447.41
2022-12-11T19:58:19.641Z,100441.91
2022-12-11T20:02:21.172Z,100450.84
2022-12-11T20:06:23.667Z,100444.94
2022-12-11T20:10:25.128Z,100442.97
2022-12-11T20:14:26.753Z,100433.75
2022-12-11T20:18:28.512Z,100440.16
2022-12-11T20:22:29.975Z,100441.53
2022-12-11T20:26:32.540Z,100443.63
2022-12-11T20:30:38.552Z,100441.94
2022-12-11T20:34:40.238Z,100442.84
2022-12-11T20:38:42.192Z,100447.50
2022-12-11T20:42:44.140Z,100445.03
2022-12-11T20:46:45.664Z,100448.31
2022-12-11T20:50:53.508Z,100445.22
2022-12-11T20:54:55.017Z,100441.94
2022-12-11T20:58:57.894Z,100452.50
2022-12-11T21:02:59.380Z,100443.91
2022-12-11T21:07:00.929Z,100441.84
2022-12-11T21:11:05.674Z,100442.63
2022-12-11T21:15:11.320Z,100449.75
2022-12-11T21:19:17.068Z,100446.31
2022-12-11T21:23:18.762Z,100449.25
2022-12-11T21:27:22.945Z,100444.56
2022-12-11T21:31:35.469Z,100447.09
2022-12-11T21:35:39.977Z,100446.25
2022-12-11T21:39:44.276Z,100455.97
2022-12-11T21:44:41.026Z,100443.66
2022-12-11T21:48:08.873Z,100435.97
2022-12-11T21:52:14.561Z,100438.69
2022-12-11T21:56:22.470Z,100421.06
2022-12-11T22:00:24.660Z,100427.31
2022-12-11T22:04:29.384Z,100426.22
2022-12-11T22:08:30.885Z,100419.50
2022-12-11T22:12:37.886Z,100417.19
2022-12-11T22:16:56.472Z,100414.75
2022-12-11T22:20:58.720Z,100418.38
2022-12-11T22:25:00.259Z,100429.75
2022-12-11T22:29:01.819Z,100417.53
2022-12-11T22:33:03.435Z,100409.09
2022-12-11T22:37:04.887Z,100416.78
2022-12-11T22:41:18.980Z,100408.69
2022-12-11T22:45:24.193Z,100417.59
2022-12-11T22:49:25.826Z,100418.31
2022-12-11T22:53:27.248Z,100427.47
2022-12-11T22:57:28.751Z,100429.97
2022-12-11T23:01:30.259Z,100425.03
2022-12-11T23:05:31.810Z,100440.47
2022-12-11T23:09:33.583Z,100452.63
2022-12-11T23:13:35.036Z,100445.81
2022-12-11T23:17:36.525Z,100440.38
2022-12-11T23:21:39.033Z,100440.38
2022-12-11T23:25:40.473Z,100445.22
2022-12-11T23:29:41.939Z,100457.66
2022-12-11T23:33:43.465Z,100444.38
2022-12-11T23:37:44.910Z,100457.84
2022-12-11T23:41:46.399Z,100450.44
2022-12-11T23:45:47.877Z,100448.38
2022-12-11T23:49:49.325Z,100441.84
2022-12-11T23:53:51.166Z,100441.00
2022-12-11T23:57:52.664Z,100438.00
